Flight Track Log - Related Links

Times and Time Zones

All times are in EDT time to prevent confusion due to time zone crossing. See the SWA182 flight status page for this flight to view local times or setup timezone preferences in your user account.

Time Position Orientation Groundspeed Altitude Reporting Facility
EDT Latitude Longitude Course Direction KTS MPH feet Rate Location/Type
Tue 01:10:57 AM 36.0769 -115.1519 271° West 140 161 3,400  Level Los Angeles Center
Tue 01:11:27 AM 36.0772 -115.1839 271° West 160 184 4,600 2,583 Climbing Los Angeles Center
Tue 01:12:09 AM 36.0761 -115.2219 268° West 185 213 6,500 3,262 Climbing Los Angeles Center
Tue 01:13:10 AM 36.1056 -115.2892 298° West 228 262 10,200 3,366 Climbing Los Angeles Center
Tue 01:14:12 AM 36.1717 -115.2619 18° North 271 312 13,400 2,683 Climbing Los Angeles Center
Tue 01:15:13 AM 36.1978 -115.1528 73° East 327 376 15,700 2,705 Climbing Los Angeles Center
Tue 01:16:14 AM 36.1978 -115.0197 90° East 376 433 18,900 3,295 Climbing Los Angeles Center
Tue 01:17:15 AM 36.1992 -114.8517 89° East 402 463 22,400 2,829 Climbing Los Angeles Center
Tue 01:18:17 AM 36.2581 -114.7253 60° Northeast 440 506 24,700 2,537 Climbing Los Angeles Center
Tue 01:19:18 AM 36.3600 -114.6286 37° Northeast 458 527 27,600 2,951 Climbing Los Angeles Center
Tue 01:20:19 AM 36.4619 -114.5322 37° Northeast 462 532 30,700 1,659 Climbing Los Angeles Center
Tue 01:21:21 AM 36.5622 -114.4378 37° Northeast 456 525 31,000 146 Climbing Los Angeles Center
Tue 01:22:22 AM 36.6711 -114.3542 32° Northeast 458 527 31,000 49 Level Los Angeles Center
Tue 01:23:23 AM 36.7806 -114.2708 31° Northeast 460 529 31,100 934 Climbing Los Angeles Center
Tue 01:24:24 AM 36.8950 -114.1797 32° Northeast 478 550 32,900 2,049 Climbing Los Angeles Center
Tue 01:25:26 AM 37.0367 -114.0697 32° Northeast 495 570 35,300 2,000 Climbing Los Angeles Center
Tue 01:26:27 AM 37.1528 -113.9806 31° Northeast 493 567 37,000 836 Climbing Los Angeles Center
Tue 01:27:28 AM 37.2644 -113.8922 32° Northeast 482 555 37,000  Level Los Angeles Center
Tue 01:28:29 AM 37.3719 -113.8075 32° Northeast 478 550 37,000  Level Los Angeles Center
Tue 01:29:26 AM 37.4850 -113.7200 32° Northeast 477 549 37,000  Level Salt Lake Center
Tue 01:30:26 AM 37.5978 -113.6292 33° Northeast 478 550 37,000  Level Salt Lake Center
Tue 01:31:27 AM 37.7111 -113.5386 32° Northeast 478 550 37,000  Level Salt Lake Center
Tue 01:32:28 AM 37.8244 -113.4494 32° Northeast 476 548 37,000  Level Salt Lake Center
Tue 01:33:29 AM 37.9358 -113.3594 32° Northeast 472 543 37,000  Level Salt Lake Center
Tue 01:34:30 AM 38.0475 -113.2703 32° Northeast 470 541 37,000  Level Salt Lake Center
Tue 01:35:31 AM 38.1583 -113.1797 33° Northeast 471 542 37,000  Level Salt Lake Center
Tue 01:36:32 AM 38.2700 -113.0894 32° Northeast 472 543 37,000  Level Salt Lake Center
Tue 01:37:33 AM 38.3806 -113.0028 32° Northeast 469 540 37,000  Level Salt Lake Center
Tue 01:38:34 AM 38.5028 -112.9417 21° North 470 541 37,000  Level Salt Lake Center
Tue 01:39:34 AM 38.6231 -112.8769 23° Northeast 468 539 37,000  Level Salt Lake Center
Tue 01:40:35 AM 38.7436 -112.8089 24° Northeast 470 541 37,000  Level Salt Lake Center
Tue 01:41:36 AM 38.8664 -112.7442 22° Northeast 475 547 37,000  Level Salt Lake Center
Tue 01:42:37 AM 38.9861 -112.6778 23° Northeast 471 542 37,000 -197 Level Salt Lake Center
Tue 01:43:38 AM 39.1064 -112.6150 22° Northeast 468 539 36,600 -1,770 Descending Salt Lake Center
Tue 01:44:39 AM 39.2511 -112.5344 23° Northeast 475 547 33,400 -3,124 Descending Salt Lake Center
Tue 01:45:39 AM 39.3783 -112.4756 20° North 484 557 30,300 -2,876 Descending Salt Lake Center
Tue 01:46:40 AM 39.5108 -112.4386 12° North 487 560 27,600 -2,557 Descending Salt Lake Center
Tue 01:47:41 AM 39.6375 -112.3956 15° North 472 543 25,100 -2,410 Descending Salt Lake Center
Tue 01:48:42 AM 39.7606 -112.3547 14° North 459 528 22,700 -2,311 Descending Salt Lake Center
Tue 01:49:43 AM 39.8800 -112.3144 15° North 445 512 20,400 -2,231 Descending Salt Lake Center
Tue 01:50:43 AM 39.9919 -112.2758 15° North 416 479 18,200 -2,296 Descending Salt Lake Center
Tue 01:51:04 AM 40.0347 -112.2694 North 409 471 17,300 -1,180 Descending Salt Lake Center
Tue 01:51:44 AM 40.0992 -112.2397 19° North 399 459 17,000 -200 Descending Salt Lake Center
Tue 01:52:04 AM 40.1414 -112.2314 North 399 459 17,100 -492 Climbing Salt Lake Center
Tue 01:52:45 AM 40.2067 -112.2025 19° North 400 460 16,500 -1,672 Descending Salt Lake Center
Tue 01:53:05 AM 40.2506 -112.1950 North 400 460 15,400 -1,475 Descending Salt Lake Center
Tue 01:53:46 AM 40.3139 -112.1669 19° North 395 455 15,000 -178 Descending Salt Lake Center
Tue 01:54:46 AM 40.4192 -112.1311 15° North 386 444 15,100 50 Climbing Salt Lake Center
Tue 01:55:47 AM 40.5236 -112.0947 15° North 389 448 15,100 -49 Level Salt Lake Center
Tue 01:56:48 AM 40.6208 -112.0781 North 360 414 15,000 -246 Descending Salt Lake Center
Tue 01:57:49 AM 40.7100 -112.0861 356° North 305 351 14,600 -744 Descending Salt Lake Center
Tue 01:58:49 AM 40.7906 -112.0956 355° North 289 333 13,500 -1,488 Descending Salt Lake Center
Tue 01:59:50 AM 40.8636 -112.1053 354° North 260 299 11,600 -1,820 Descending Salt Lake Center
Tue 02:00:51 AM 40.9331 -112.1131 355° North 249 287 9,800 -2,025 Descending Salt Lake Center
Tue 02:01:10 AM 40.9644 -112.1044 12° North 250 288 8,900 -1,800 Descending Salt Lake Center
Tue 02:01:51 AM 40.9725 -112.0594 77° East 244 281 8,000 -1,800 Descending Salt Lake Center
Tue 02:02:10 AM 40.9619 -112.0258 113° Southeast 227 261 7,100 -1,574 Descending Salt Lake Center
Tue 02:02:52 AM 40.9314 -112.0144 164° South 173 199 6,400 -885 Descending Salt Lake Center
Tue 02:03:11 AM 40.9186 -112.0122 173° South 162 186 6,200 -689 Descending Salt Lake Center
Tue 02:03:53 AM 40.8883 -112.0089 175° South 157 181 5,700 -700 Descending Salt Lake Center
Tue 02:04:11 AM 40.8769 -112.0092 181° South 151 174 5,500 -600 Descending Salt Lake Center
Tue 02:04:53 AM 40.8519 -112.0044 172° South 134 154 5,100 -590 Descending Salt Lake Center
Tue 02:05:12 AM 40.8417 -112.0042 179° South 130 150 4,900 -689 Descending Salt Lake Center
Tue 02:05:54 AM 40.8172 -111.9997 172° South 127 146 4,400 -714 Descending Salt Lake Center
Tue 02:07:00 AM 40.7884 -111.9778 159° South  Level Estimated
Tue 02:14:00 AM 40.7884 -111.9778 159° South  Level Estimated

Login

Don't have an account? Register now (free) for customized features, flight alerts, and more!